Time;durP1;ratioP1;P1;durP2;ratioP2;P2;SDS_P1;SDS_P2;PMS_P1;PMS_P2;Temp;Humidity;BMP_temperature;BMP_pressure;BME280_temperature;BME280_humidity;BME280_pressure;Samples;Min_cycle;Max_cycle;Signal;HPM_P1;HPM_P2
2021/05/01 00:01:12;;;;;;;41.65;22.35;;;7.50;99.90;;;;;;5032852;28;20033;-68
2021/05/01 00:03:38;;;;;;;35.20;21.52;;;7.50;99.90;;;;;;5032422;28;20493;-69
2021/05/01 00:06:03;;;;;;;36.47;21.63;;;7.50;99.90;;;;;;5032445;28;20040;-68
2021/05/01 00:08:29;;;;;;;33.05;21.00;;;7.40;99.90;;;;;;5032531;28;20474;-68
2021/05/01 00:11:03;;;;;;;35.58;22.05;;;7.40;99.90;;;;;;5032456;28;20037;-68
2021/05/01 00:13:31;;;;;;;39.90;21.88;;;7.30;99.90;;;;;;5047245;28;20076;-69
2021/05/01 00:15:58;;;;;;;35.97;21.52;;;7.30;99.90;;;;;;5047970;28;20164;-68
2021/05/01 00:18:24;;;;;;;36.28;21.33;;;7.30;99.90;;;;;;5032517;28;20036;-68
2021/05/01 00:20:50;;;;;;;36.53;22.45;;;7.30;99.90;;;;;;5030902;28;20029;-68
2021/05/01 00:23:16;;;;;;;34.95;21.73;;;7.30;99.90;;;;;;5032712;28;20076;-68
2021/05/01 00:25:42;;;;;;;40.15;23.05;;;7.20;99.90;;;;;;5014554;28;20029;-68
2021/05/01 00:28:10;;;;;;;38.50;21.70;;;7.20;99.90;;;;;;5032320;28;20037;-68
2021/05/01 00:30:37;;;;;;;38.50;22.35;;;7.30;99.90;;;;;;5032189;28;20038;-68
2021/05/01 00:33:04;;;;;;;38.58;22.20;;;7.30;99.90;;;;;;5047850;28;20523;-67
2021/05/01 00:35:29;;;;;;;40.30;23.58;;;7.20;99.90;;;;;;5031988;28;20072;-68
2021/05/01 00:37:55;;;;;;;41.22;24.58;;;7.30;99.90;;;;;;5047883;28;20033;-68
2021/05/01 00:40:21;;;;;;;37.17;21.88;;;7.20;99.90;;;;;;5032105;28;20547;-68
2021/05/01 00:42:47;;;;;;;39.17;21.05;;;7.20;99.90;;;;;;5032290;28;20505;-68
2021/05/01 00:45:13;;;;;;;38.15;23.00;;;7.30;99.90;;;;;;5014441;28;20125;-68
2021/05/01 00:47:39;;;;;;;37.47;22.98;;;7.30;99.90;;;;;;5032183;28;20045;-68
2021/05/01 00:50:06;;;;;;;34.17;20.70;;;7.40;99.90;;;;;;5032090;28;20040;-69
2021/05/01 00:52:33;;;;;;;34.95;21.17;;;7.40;99.90;;;;;;5032251;28;20036;-68
2021/05/01 00:54:59;;;;;;;34.85;21.23;;;7.40;99.90;;;;;;4997930;28;20480;-69
2021/05/01 00:57:25;;;;;;;30.05;20.13;;;7.30;99.90;;;;;;5030771;28;20037;-68
2021/05/01 00:59:51;;;;;;;35.25;20.08;;;7.30;99.90;;;;;;5035325;28;20120;-68
2021/05/01 01:02:21;;;;;;;31.90;20.92;;;7.20;99.90;;;;;;5036361;28;20112;-67
2021/05/01 01:04:47;;;;;;;38.03;22.95;;;7.10;99.90;;;;;;5035906;28;20040;-67
2021/05/01 01:07:13;;;;;;;39.90;23.50;;;7.00;99.90;;;;;;5036377;28;20387;-67
2021/05/01 01:09:39;;;;;;;41.22;22.92;;;6.90;99.90;;;;;;5035721;28;20060;-68
2021/05/01 01:12:06;;;;;;;37.67;22.20;;;6.80;99.90;;;;;;5051615;28;20374;-68
2021/05/01 01:14:32;;;;;;;35.53;21.98;;;6.60;99.90;;;;;;5050933;28;20037;-68
2021/05/01 01:16:58;;;;;;;38.15;22.80;;;6.50;99.90;;;;;;5035963;28;20402;-65
2021/05/01 01:19:24;;;;;;;40.20;23.42;;;6.50;99.90;;;;;;5036049;28;20029;-68
2021/05/01 01:21:50;;;;;;;40.22;23.35;;;6.60;99.90;;;;;;5050757;28;20061;-69
2021/05/01 01:24:17;;;;;;;42.53;23.77;;;6.60;99.90;;;;;;5051024;28;20026;-69
2021/05/01 01:26:44;;;;;;;42.35;24.80;;;6.70;99.90;;;;;;5035795;28;20038;-68
2021/05/01 01:29:13;;;;;;;43.03;25.30;;;6.70;99.90;;;;;;5034399;28;20100;-69
2021/05/01 01:31:41;;;;;;;42.00;25.48;;;6.70;99.90;;;;;;5050746;28;20026;-68
2021/05/01 01:34:08;;;;;;;44.65;25.52;;;6.70;99.90;;;;;;5034222;28;20033;-68
2021/05/01 01:36:33;;;;;;;48.00;25.63;;;6.70;99.90;;;;;;5035200;28;20128;-68
2021/05/01 01:38:59;;;;;;;46.08;26.00;;;6.60;99.90;;;;;;5035706;28;20133;-68
2021/05/01 01:41:27;;;;;;;42.88;25.33;;;6.70;99.90;;;;;;5050755;28;20394;-68
2021/05/01 01:43:52;;;;;;;45.25;25.90;;;6.70;99.90;;;;;;5035279;28;20033;-69
2021/05/01 01:46:18;;;;;;;48.88;26.27;;;6.70;99.90;;;;;;5035311;28;20424;-69
2021/05/01 01:48:44;;;;;;;42.75;25.05;;;6.70;99.90;;;;;;5035365;28;20033;-68
2021/05/01 01:51:10;;;;;;;49.55;27.02;;;6.70;99.90;;;;;;5035167;28;20393;-67
2021/05/01 01:53:35;;;;;;;53.90;26.20;;;6.70;99.90;;;;;;5035176;28;20033;-67
2021/05/01 01:56:01;;;;;;;43.22;25.73;;;6.70;99.90;;;;;;5035269;28;20102;-67
2021/05/01 01:58:27;;;;;;;44.60;25.10;;;6.70;99.90;;;;;;5034167;28;20029;-68
2021/05/01 02:00:54;;;;;;;41.53;24.92;;;6.70;99.90;;;;;;5035139;28;20037;-67
2021/05/01 02:03:20;;;;;;;45.08;26.02;;;6.70;99.90;;;;;;5035290;28;20026;-68
2021/05/01 02:05:46;;;;;;;45.88;25.25;;;6.60;99.90;;;;;;5035048;28;20045;-68
2021/05/01 02:08:13;;;;;;;42.05;24.83;;;6.60;99.90;;;;;;5035241;28;20037;-67
2021/05/01 02:10:40;;;;;;;45.00;26.85;;;6.50;99.90;;;;;;5048963;28;20103;-68
2021/05/01 02:13:06;;;;;;;49.67;27.20;;;6.50;99.90;;;;;;5050031;28;20028;-68
2021/05/01 02:15:32;;;;;;;47.25;26.80;;;6.50;99.90;;;;;;5034733;28;20041;-68
2021/05/01 02:18:01;;;;;;;46.38;26.10;;;6.50;99.90;;;;;;5049822;28;20029;-67
2021/05/01 02:20:35;;;;;;;47.13;26.95;;;6.40;99.90;;;;;;5035191;28;20080;-67
2021/05/01 02:23:05;;;;;;;46.92;27.45;;;6.50;99.90;;;;;;5049566;28;20128;-67
2021/05/01 02:25:31;;;;;;;47.85;27.73;;;6.50;99.90;;;;;;5049888;28;20139;-68
2021/05/01 02:27:57;;;;;;;49.22;28.40;;;6.50;99.90;;;;;;5034621;28;20064;-67
2021/05/01 02:30:26;;;;;;;49.78;28.25;;;6.40;99.90;;;;;;5034441;28;20057;-67
2021/05/01 02:32:53;;;;;;;52.10;29.15;;;6.40;99.90;;;;;;5049451;28;20370;-68
2021/05/01 02:35:22;;;;;;;46.20;27.77;;;6.40;99.90;;;;;;5033175;28;20037;-67
2021/05/01 02:37:49;;;;;;;50.80;28.33;;;6.30;99.90;;;;;;5049354;28;20112;-67
2021/05/01 02:40:17;;;;;;;48.53;28.15;;;6.20;99.90;;;;;;5049689;28;20112;-67
2021/05/01 02:42:44;;;;;;;57.72;30.48;;;6.20;99.90;;;;;;5034400;28;20068;-68
2021/05/01 02:45:15;;;;;;;53.85;30.02;;;6.10;99.90;;;;;;5034486;28;20025;-68
2021/05/01 02:47:42;;;;;;;57.60;30.65;;;6.10;99.90;;;;;;5034116;28;20037;-68
2021/05/01 02:50:10;;;;;;;58.50;29.42;;;6.10;99.90;;;;;;5034007;28;20048;-68
2021/05/01 02:52:35;;;;;;;54.33;29.27;;;6.00;99.90;;;;;;5016581;28;20385;-68
2021/05/01 02:55:03;;;;;;;53.13;28.33;;;6.10;99.90;;;;;;5049247;28;20112;-68
2021/05/01 02:57:29;;;;;;;56.53;29.85;;;6.00;99.90;;;;;;5034000;28;20084;-68
2021/05/01 03:00:01;;;;;;;56.22;30.95;;;6.00;99.90;;;;;;5034034;28;20061;-68
2021/05/01 03:02:27;;;;;;;60.63;30.40;;;6.00;99.90;;;;;;5033898;28;20042;-68
2021/05/01 03:04:52;;;;;;;56.20;30.45;;;6.00;99.90;;;;;;5033667;28;20433;-68
2021/05/01 03:07:18;;;;;;;59.53;30.40;;;6.00;99.90;;;;;;5033770;28;20026;-68
2021/05/01 03:09:44;;;;;;;57.58;30.92;;;5.90;99.90;;;;;;5048970;28;20040;-68
2021/05/01 03:12:10;;;;;;;54.92;30.27;;;5.90;99.90;;;;;;5033740;28;20049;-68
2021/05/01 03:14:35;;;;;;;52.95;29.55;;;5.90;99.90;;;;;;5033622;28;20041;-68
2021/05/01 03:17:01;;;;;;;51.55;30.08;;;5.90;99.90;;;;;;5049010;28;20038;-68
2021/05/01 03:19:27;;;;;;;58.78;31.02;;;5.90;99.90;;;;;;5049114;28;20034;-68
2021/05/01 03:21:53;;;;;;;55.30;30.48;;;5.90;99.90;;;;;;5032757;28;20045;-68
2021/05/01 03:24:18;;;;;;;57.63;30.25;;;5.90;99.90;;;;;;5033529;28;20037;-68
2021/05/01 03:26:44;;;;;;;60.45;32.80;;;5.90;99.90;;;;;;5033539;28;20100;-68
2021/05/01 03:29:10;;;;;;;57.13;30.63;;;5.80;99.90;;;;;;5048943;28;20099;-69
2021/05/01 03:31:37;;;;;;;56.90;30.60;;;5.80;99.90;;;;;;5033693;28;20029;-67
2021/05/01 03:34:03;;;;;;;58.15;30.52;;;6.00;99.90;;;;;;5015495;28;20033;-68
2021/05/01 03:36:29;;;;;;;55.45;30.13;;;6.00;99.90;;;;;;5033239;28;20041;-67
2021/05/01 03:38:55;;;;;;;56.40;31.98;;;6.10;99.90;;;;;;5033418;28;20429;-68
2021/05/01 03:41:20;;;;;;;58.38;30.67;;;6.10;99.90;;;;;;5015299;28;20473;-67
2021/05/01 03:43:46;;;;;;;55.88;29.90;;;6.10;99.90;;;;;;5048424;28;20029;-67
2021/05/01 03:46:12;;;;;;;54.83;29.95;;;6.00;99.90;;;;;;5033314;28;20061;-68
2021/05/01 03:48:38;;;;;;;54.08;29.85;;;5.90;99.90;;;;;;5033271;28;20057;-68
2021/05/01 03:51:07;;;;;;;57.30;29.85;;;5.80;99.90;;;;;;5031623;28;20033;-68
2021/05/01 03:53:33;;;;;;;59.67;30.33;;;5.70;99.90;;;;;;5047660;28;20033;-68
2021/05/01 03:55:58;;;;;;;65.60;31.85;;;5.70;99.90;;;;;;5033021;28;20033;-68
2021/05/01 03:58:24;;;;;;;59.53;30.92;;;5.70;99.90;;;;;;5033161;28;20032;-68
2021/05/01 04:00:51;;;;;;;62.25;32.10;;;5.70;99.90;;;;;;5032633;28;20071;-68
2021/05/01 04:03:16;;;;;;;55.85;31.15;;;5.80;99.90;;;;;;5033031;28;20075;-68
2021/05/01 04:05:42;;;;;;;57.80;30.50;;;5.90;99.90;;;;;;5032703;28;20037;-68
2021/05/01 04:08:08;;;;;;;60.22;32.38;;;5.90;99.90;;;;;;5032728;28;20057;-68
2021/05/01 04:10:34;;;;;;;56.42;30.52;;;5.90;99.90;;;;;;5015109;28;20462;-68
2021/05/01 04:13:00;;;;;;;60.95;32.15;;;5.80;99.90;;;;;;5032722;28;20033;-67
2021/05/01 04:15:27;;;;;;;66.55;31.15;;;5.90;99.90;;;;;;5015137;28;20029;-68
2021/05/01 04:17:53;;;;;;;62.83;32.90;;;5.90;99.90;;;;;;5032621;28;20036;-68
2021/05/01 04:20:20;;;;;;;62.63;31.42;;;5.90;99.90;;;;;;5032507;28;20494;-69
2021/05/01 04:22:46;;;;;;;62.50;33.13;;;5.90;99.90;;;;;;5032135;28;20110;-68
2021/05/01 04:25:12;;;;;;;67.95;33.20;;;5.90;99.90;;;;;;5032654;28;20034;-68
2021/05/01 04:27:39;;;;;;;70.45;36.97;;;5.90;99.90;;;;;;5032620;28;20123;-68
2021/05/01 04:30:09;;;;;;;78.13;38.22;;;5.90;99.90;;;;;;5047431;28;20498;-68
2021/05/01 04:32:35;;;;;;;68.90;35.72;;;5.90;99.90;;;;;;5031930;28;20033;-68
2021/05/01 04:35:04;;;;;;;67.03;35.90;;;5.90;99.90;;;;;;5013580;28;20038;-68
2021/05/01 04:37:30;;;;;;;68.45;34.65;;;5.80;99.90;;;;;;5032354;28;20032;-68
2021/05/01 04:39:56;;;;;;;66.50;35.13;;;5.90;99.90;;;;;;5047528;28;20037;-68
2021/05/01 04:42:22;;;;;;;68.30;35.20;;;6.00;99.90;;;;;;5032350;28;20116;-68
2021/05/01 04:44:47;;;;;;;66.38;33.47;;;6.00;99.90;;;;;;5032391;28;20033;-68
2021/05/01 04:47:15;;;;;;;63.53;33.85;;;6.00;99.90;;;;;;5032170;28;20112;-68
2021/05/01 04:49:42;;;;;;;65.38;33.78;;;6.10;99.90;;;;;;5032327;28;20029;-68
2021/05/01 04:52:08;;;;;;;65.50;32.55;;;6.10;99.90;;;;;;5032276;28;20033;-68
2021/05/01 04:54:34;;;;;;;54.95;31.17;;;6.20;99.90;;;;;;5047233;28;20030;-67
2021/05/01 04:56:59;;;;;;;62.05;32.40;;;6.10;99.90;;;;;;5031820;28;20095;-67
2021/05/01 04:59:25;;;;;;;63.00;33.15;;;6.10;99.90;;;;;;5032298;28;20030;-67
2021/05/01 05:01:51;;;;;;;56.85;30.73;;;6.00;99.90;;;;;;5014101;28;20038;-66
2021/05/01 05:04:16;;;;;;;62.17;33.92;;;6.00;99.90;;;;;;5031497;28;20041;-68
2021/05/01 05:06:42;;;;;;;66.07;34.03;;;5.90;99.90;;;;;;5031648;28;20029;-73
2021/05/01 05:09:08;;;;;;;63.50;32.70;;;5.90;99.90;;;;;;5031446;28;20382;-72
2021/05/01 05:11:34;;;;;;;68.22;34.72;;;5.90;99.90;;;;;;5014209;28;20040;-72
2021/05/01 05:14:01;;;;;;;70.50;35.70;;;5.80;99.90;;;;;;5014338;28;20064;-74
2021/05/01 05:16:27;;;;;;;68.68;37.38;;;5.80;99.90;;;;;;5014227;28;20030;-75
2021/05/01 05:18:56;;;;;;;77.10;40.67;;;5.80;99.90;;;;;;5013695;28;20528;-75
2021/05/01 05:21:25;;;;;;;82.75;40.38;;;5.80;99.90;;;;;;5031702;28;20064;-73
2021/05/01 05:23:53;;;;;;;80.45;42.03;;;5.90;99.90;;;;;;5046587;28;20030;-74
2021/05/01 05:26:19;;;;;;;81.32;40.67;;;5.90;99.90;;;;;;5032204;28;20030;-73
2021/05/01 05:28:44;;;;;;;72.15;36.72;;;5.90;99.90;;;;;;5032135;28;20032;-75
2021/05/01 05:31:11;;;;;;;67.78;36.72;;;5.90;99.90;;;;;;5031931;28;20132;-74
2021/05/01 05:33:36;;;;;;;72.43;37.60;;;5.90;99.90;;;;;;5031910;28;20117;-74
2021/05/01 05:36:03;;;;;;;68.15;35.15;;;5.90;99.90;;;;;;5031939;28;20040;-75
2021/05/01 05:38:28;;;;;;;67.82;35.67;;;6.00;99.90;;;;;;5032117;28;20112;-75
2021/05/01 05:40:54;;;;;;;63.50;33.53;;;6.10;99.90;;;;;;5032021;28;20103;-76
2021/05/01 05:43:20;;;;;;;68.10;35.13;;;6.20;99.90;;;;;;5031751;28;20055;-76
2021/05/01 05:45:48;;;;;;;62.67;33.28;;;6.20;99.90;;;;;;5035046;28;20366;-76
2021/05/01 05:48:17;;;;;;;59.85;31.95;;;6.20;99.90;;;;;;5035687;28;20083;-75
2021/05/01 05:50:44;;;;;;;67.32;33.65;;;6.30;99.90;;;;;;5017686;28;20037;-76
2021/05/01 05:53:13;;;;;;;59.70;32.08;;;6.20;99.90;;;;;;5050900;28;20029;-73
2021/05/01 05:55:38;;;;;;;64.47;32.83;;;6.30;99.90;;;;;;5035386;28;20034;-74
2021/05/01 05:58:04;;;;;;;68.10;32.85;;;6.40;99.90;;;;;;5035255;28;20055;-73
2021/05/01 06:00:30;;;;;;;69.28;35.08;;;6.50;99.90;;;;;;5035680;28;20044;-73
2021/05/01 06:03:01;;;;;;;62.25;32.92;;;6.60;99.90;;;;;;5035052;28;20124;-73
2021/05/01 06:05:43;;;;;;;67.97;35.00;;;6.60;99.90;;;;;;5035262;28;20429;-73
2021/05/01 06:08:10;;;;;;;62.85;34.17;;;6.70;99.90;;;;;;5033644;28;20046;-75
2021/05/01 06:10:39;;;;;;;60.85;31.95;;;6.80;99.90;;;;;;5035101;28;20363;-76
2021/05/01 06:13:05;;;;;;;62.70;33.55;;;6.80;99.90;;;;;;5035277;28;20036;-77
2021/05/01 06:15:32;;;;;;;60.53;32.15;;;6.90;99.90;;;;;;5034696;28;20370;-77
2021/05/01 06:18:01;;;;;;;62.13;32.53;;;6.90;99.90;;;;;;5034990;28;20412;-75
2021/05/01 06:20:29;;;;;;;62.08;34.70;;;6.90;99.90;;;;;;5032968;28;20037;-76
2021/05/01 06:22:55;;;;;;;61.72;33.55;;;6.90;99.90;;;;;;5034656;28;20049;-76
2021/05/01 06:25:22;;;;;;;65.07;34.28;;;7.00;99.90;;;;;;5035036;28;20045;-76
2021/05/01 06:27:52;;;;;;;67.13;36.03;;;7.00;99.90;;;;;;5035161;28;20060;-75
2021/05/01 06:30:20;;;;;;;62.67;32.07;;;7.20;99.90;;;;;;5034602;28;20402;-74
2021/05/01 06:32:46;;;;;;;57.97;31.05;;;7.50;99.90;;;;;;5049993;28;20038;-74
2021/05/01 06:35:13;;;;;;;56.65;30.77;;;7.70;99.90;;;;;;5049633;28;20029;-74
2021/05/01 06:37:40;;;;;;;57.22;30.98;;;7.70;99.90;;;;;;5034291;28;20060;-74
2021/05/01 06:40:15;;;;;;;50.70;29.65;;;7.60;99.90;;;;;;5032857;28;20116;-73
2021/05/01 06:43:00;;;;;;;55.05;29.92;;;7.60;99.90;;;;;;5034461;28;20030;-76
2021/05/01 06:45:27;;;;;;;53.47;27.55;;;7.70;99.90;;;;;;5047448;28;20034;-75
2021/05/01 06:47:59;;;;;;;41.60;23.33;;;8.00;99.90;;;;;;5049481;28;20036;-78
2021/05/01 06:50:27;;;;;;;48.72;26.38;;;8.30;99.90;;;;;;5048967;28;20061;-75
2021/05/01 06:52:56;;;;;;;43.70;24.80;;;8.50;99.90;;;;;;5034041;28;20026;-76
2021/05/01 06:55:25;;;;;;;39.55;21.38;;;8.80;99.90;;;;;;5032570;28;20094;-66
2021/05/01 06:57:53;;;;;;;34.15;20.73;;;8.90;99.90;;;;;;5048916;28;20363;-74
2021/05/01 07:00:22;;;;;;;38.95;24.10;;;9.00;99.90;;;;;;5034286;28;20040;-74
2021/05/01 07:03:07;;;;;;;35.17;20.30;;;9.00;99.90;;;;;;5034015;28;20083;-74
2021/05/01 07:05:35;;;;;;;35.78;21.13;;;9.00;99.90;;;;;;5049182;28;20477;-74
2021/05/01 07:08:01;;;;;;;39.88;22.80;;;9.20;99.90;;;;;;5033982;28;20125;-74
2021/05/01 07:10:27;;;;;;;38.65;23.10;;;9.40;99.90;;;;;;5034677;28;20044;-73
2021/05/01 07:12:55;;;;;;;34.83;19.83;;;9.20;99.90;;;;;;5052674;28;20373;-74
2021/05/01 07:15:21;;;;;;;34.78;20.58;;;9.20;99.90;;;;;;5053889;28;20389;-73
2021/05/01 07:17:51;;;;;;;30.55;19.02;;;9.50;99.90;;;;;;5053430;28;20036;-73
2021/05/01 07:20:18;;;;;;;34.63;20.40;;;9.60;99.90;;;;;;5053254;28;20025;-73
2021/05/01 07:22:44;;;;;;;33.92;20.73;;;9.90;99.90;;;;;;5036721;28;20042;-72
2021/05/01 07:25:13;;;;;;;33.58;19.92;;;9.90;99.90;;;;;;5033483;28;20144;-73
2021/05/01 07:27:49;;;;;;;32.35;19.17;;;9.90;99.90;;;;;;5032001;28;20025;-73
2021/05/01 07:30:18;;;;;;;30.25;18.85;;;9.60;99.90;;;;;;5033540;28;20029;-73
2021/05/01 07:32:52;;;;;;;36.13;20.05;;;9.40;99.90;;;;;;5033649;28;20103;-72
2021/05/01 07:35:19;;;;;;;32.42;19.05;;;9.30;99.90;;;;;;5048039;28;20037;-73
2021/05/01 07:37:50;;;;;;;35.33;19.55;;;9.50;99.90;;;;;;5048790;28;20393;-72
2021/05/01 07:40:28;;;;;;;35.53;20.45;;;9.30;99.90;;;;;;5032834;28;20032;-72
2021/05/01 07:42:55;;;;;;;31.65;19.63;;;9.70;99.90;;;;;;5033460;28;20037;-73
2021/05/01 07:45:22;;;;;;;34.00;19.95;;;9.90;99.90;;;;;;5048008;28;20470;-70
2021/05/01 07:47:55;;;;;;;32.13;18.60;;;9.90;99.90;;;;;;5031362;28;20034;-70
2021/05/01 07:50:26;;;;;;;28.35;17.30;;;10.20;99.90;;;;;;5047837;28;20557;-72
2021/05/01 07:52:53;;;;;;;31.27;16.48;;;10.40;99.90;;;;;;5048250;28;20030;-70
2021/05/01 07:55:21;;;;;;;31.67;18.58;;;10.60;99.90;;;;;;5032507;28;20490;-71
2021/05/01 07:57:48;;;;;;;31.88;18.52;;;10.60;99.90;;;;;;5032743;28;20110;-70
2021/05/01 08:00:19;;;;;;;34.08;18.20;;;10.40;99.90;;;;;;5032788;28;20091;-69
2021/05/01 08:02:46;;;;;;;28.33;17.73;;;10.50;99.90;;;;;;5032491;28;20494;-71
2021/05/01 08:05:13;;;;;;;26.63;15.25;;;10.90;99.90;;;;;;5048152;28;20084;-72
2021/05/01 08:07:39;;;;;;;24.95;16.55;;;10.70;99.90;;;;;;5032829;28;20033;-73
2021/05/01 08:10:06;;;;;;;27.75;17.02;;;10.40;99.90;;;;;;5032345;28;20037;-66
2021/05/01 08:12:32;;;;;;;26.58;16.35;;;10.70;99.90;;;;;;5032790;28;20021;-63
2021/05/01 08:14:58;;;;;;;28.20;16.42;;;10.90;99.90;;;;;;5032683;28;20082;-67
2021/05/01 08:17:24;;;;;;;29.98;18.00;;;10.90;99.90;;;;;;5032323;28;20041;-68
2021/05/01 08:19:54;;;;;;;28.30;17.38;;;10.80;99.90;;;;;;5032808;28;20433;-74
2021/05/01 08:22:20;;;;;;;30.65;17.52;;;10.90;99.90;;;;;;5032319;28;20414;-72
2021/05/01 08:24:46;;;;;;;27.65;17.42;;;10.70;99.90;;;;;;5032786;28;20493;-73
2021/05/01 08:27:12;;;;;;;30.65;16.95;;;11.10;99.90;;;;;;5032446;28;20037;-73
2021/05/01 08:29:38;;;;;;;28.73;16.45;;;11.30;99.90;;;;;;5030814;28;20152;-72
2021/05/01 08:32:04;;;;;;;27.23;16.60;;;11.50;99.90;;;;;;5032007;28;20098;-71
2021/05/01 08:34:30;;;;;;;30.77;17.52;;;11.30;99.90;;;;;;5048001;28;20036;-72
2021/05/01 08:37:00;;;;;;;24.67;16.20;;;10.70;99.90;;;;;;5032576;28;20030;-73
2021/05/01 08:39:25;;;;;;;32.35;19.08;;;10.50;99.90;;;;;;5032364;28;20557;-71
2021/05/01 08:41:51;;;;;;;32.25;20.05;;;10.80;99.90;;;;;;5032566;28;20121;-73
2021/05/01 08:44:17;;;;;;;34.00;21.15;;;11.00;99.90;;;;;;5032467;28;20477;-73
2021/05/01 08:46:47;;;;;;;31.08;19.23;;;11.00;99.90;;;;;;5032394;28;20029;-71
2021/05/01 08:49:13;;;;;;;28.15;18.38;;;11.20;99.90;;;;;;5032478;28;20117;-77
2021/05/01 08:51:41;;;;;;;30.05;18.45;;;11.40;99.90;;;;;;5047167;28;20546;-72
2021/05/01 08:54:13;;;;;;;33.42;18.75;;;11.30;99.90;;;;;;5032225;28;20029;-72
2021/05/01 08:56:40;;;;;;;35.00;20.13;;;11.80;99.90;;;;;;5032103;28;20120;-72
2021/05/01 08:59:06;;;;;;;32.38;19.00;;;11.70;99.90;;;;;;5032114;28;20381;-72
2021/05/01 09:01:37;;;;;;;31.63;19.67;;;11.80;99.90;;;;;;5032271;28;20112;-73
2021/05/01 09:04:08;;;;;;;34.15;19.88;;;11.70;99.90;;;;;;5032021;28;20036;-73
2021/05/01 09:06:34;;;;;;;;;;;11.90;99.90;;;;;;5032715;28;20037;-72
2021/05/01 09:09:05;;;;;;;41.08;23.45;;;12.10;99.90;;;;;;5031075;28;19913;-72
2021/05/01 09:11:37;;;;;;;29.42;18.08;;;12.30;99.90;;;;;;5046930;28;20036;-74
2021/05/01 09:14:26;;;;;;;31.00;19.25;;;12.30;99.90;;;;;;5047185;28;20033;-73
2021/05/01 09:17:07;;;;;;;29.13;18.02;;;12.40;99.90;;;;;;5032119;28;20117;-72
2021/05/01 09:19:41;;;;;;;31.60;18.40;;;11.90;99.90;;;;;;5045764;28;20077;-73
2021/05/01 09:22:10;;;;;;;32.65;18.10;;;12.10;99.90;;;;;;5027226;28;20051;-72
2021/05/01 09:24:40;;;;;;;30.85;17.42;;;12.40;99.90;;;;;;5036053;28;20087;-74
2021/05/01 09:27:07;;;;;;;28.00;16.73;;;12.30;99.90;;;;;;5035951;28;20060;-72
2021/05/01 09:29:38;;;;;;;25.10;16.80;;;12.20;99.90;;;;;;5035794;28;20394;-72
2021/05/01 09:32:18;;;;;;;27.73;17.23;;;12.40;99.90;;;;;;5034492;28;20044;-73
2021/05/01 09:34:56;;;;;;;31.40;18.00;;;12.50;99.90;;;;;;5035975;28;20033;-76
2021/05/01 09:37:26;;;;;;;63.22;32.17;;;12.30;99.90;;;;;;5035562;28;20040;-72
2021/05/01 09:39:59;;;;;;;28.83;17.90;;;12.30;99.90;;;;;;5034227;28;20029;-73
2021/05/01 09:42:30;;;;;;;26.45;16.10;;;12.70;99.90;;;;;;5036036;28;20371;-74
2021/05/01 09:45:20;;;;;;;29.38;17.10;;;12.90;99.90;;;;;;5036052;28;20034;-73
2021/05/01 09:47:50;;;;;;;29.38;17.67;;;12.90;99.90;;;;;;5035791;28;20071;-72
2021/05/01 09:50:23;;;;;;;27.33;16.73;;;12.80;99.90;;;;;;5034991;28;20030;-74
2021/05/01 09:53:11;;;;;;;28.50;17.13;;;13.10;99.90;;;;;;5034543;28;20112;-73
2021/05/01 09:55:54;;;;;;;30.40;17.75;;;12.90;99.90;;;;;;5050891;28;20033;-72
2021/05/01 09:58:30;;;;;;;31.42;18.15;;;12.80;99.90;;;;;;5035360;28;20072;-72
2021/05/01 10:01:16;;;;;;;23.98;15.60;;;12.70;99.90;;;;;;5035488;28;20033;-72
2021/05/01 10:03:44;;;;;;;20.17;13.35;;;12.90;99.90;;;;;;5034269;28;20055;-73
2021/05/01 10:06:18;;;;;;;22.55;13.35;;;13.10;99.60;;;;;;5050215;28;20048;-72
2021/05/01 10:08:53;;;;;;;22.05;14.85;;;13.20;99.90;;;;;;5033912;28;20033;-74
2021/05/01 10:11:27;;;;;;;24.33;16.25;;;13.00;99.90;;;;;;5033839;28;20029;-72
2021/05/01 10:13:57;;;;;;;28.67;16.42;;;12.90;99.90;;;;;;5033835;28;20541;-72
2021/05/01 10:16:25;;;;;;;26.60;16.50;;;13.10;99.90;;;;;;5034557;28;20037;-73
2021/05/01 10:19:08;;;;;;;26.50;16.75;;;13.00;99.90;;;;;;5035103;28;20072;-74
2021/05/01 10:21:40;;;;;;;22.80;14.77;;;13.20;99.90;;;;;;5049824;28;20051;-72
2021/05/01 10:24:08;;;;;;;25.70;15.55;;;13.40;99.90;;;;;;5033821;28;20398;-73
2021/05/01 10:26:47;;;;;;;24.33;15.48;;;13.40;99.90;;;;;;5033746;28;20544;-73
2021/05/01 10:29:38;;;;;;;29.48;16.25;;;13.70;99.10;;;;;;5034711;28;20044;-74
2021/05/01 10:32:29;;;;;;;23.58;15.00;;;13.30;99.90;;;;;;5032158;28;20486;-73
2021/05/01 10:34:59;;;;;;;25.77;15.50;;;13.30;99.50;;;;;;5034727;28;20045;-74
2021/05/01 10:37:32;;;;;;;22.88;13.88;;;13.10;99.90;;;;;;5034146;28;20038;-73
2021/05/01 10:39:58;;;;;;;26.95;14.38;;;13.00;99.90;;;;;;5029197;28;20069;-73
2021/05/01 10:42:26;;;;;;;25.55;14.82;;;12.90;99.90;;;;;;5034493;28;20033;-75
2021/05/01 10:44:57;;;;;;;26.40;14.05;;;13.10;99.90;;;;;;5049554;28;20033;-73
2021/05/01 10:47:23;;;;;;;21.63;13.45;;;13.40;99.80;;;;;;5034272;28;20159;-74
2021/05/01 10:49:49;;;;;;;19.23;12.65;;;13.80;98.70;;;;;;5033071;28;20025;-73
2021/05/01 10:52:21;;;;;;;20.70;13.65;;;13.70;98.90;;;;;;5033996;28;20108;-74
2021/05/01 10:54:57;;;;;;;20.58;13.27;;;13.70;99.00;;;;;;5033278;28;20029;-74
2021/05/01 10:57:24;;;;;;;22.00;12.68;;;13.90;98.40;;;;;;5049183;28;20091;-73
2021/05/01 11:00:06;;;;;;;20.83;13.13;;;13.80;97.90;;;;;;5032737;28;20550;-73
2021/05/01 11:02:41;;;;;;;23.40;13.20;;;13.70;98.40;;;;;;5032792;28;20083;-73
2021/05/01 11:05:14;;;;;;;21.83;13.13;;;13.40;98.60;;;;;;5033289;28;20067;-74
2021/05/01 11:08:00;;;;;;;22.95;12.25;;;13.80;98.60;;;;;;5034187;28;20487;-74
2021/05/01 11:10:27;;;;;;;20.58;11.85;;;13.80;98.50;;;;;;5032722;28;20539;-73
2021/05/01 11:12:56;;;;;;;18.92;13.00;;;13.80;99.30;;;;;;5029872;28;20072;-72
2021/05/01 11:15:24;;;;;;;22.17;13.63;;;14.10;98.40;;;;;;5048816;28;20030;-72
2021/05/01 11:18:08;;;;;;;20.08;12.02;;;13.10;99.50;;;;;;5033542;28;20037;-73
2021/05/01 11:20:36;;;;;;;20.25;12.13;;;13.70;99.40;;;;;;5048629;28;20029;-70
2021/05/01 11:23:03;;;;;;;16.80;11.38;;;14.10;98.00;;;;;;5033339;28;20048;-68
2021/05/01 11:25:30;;;;;;;17.38;10.88;;;14.30;97.20;;;;;;5015575;28;20128;-74
2021/05/01 11:27:57;;;;;;;16.70;11.15;;;14.30;96.20;;;;;;5033539;28;20038;-74
2021/05/01 11:30:27;;;;;;;17.05;10.63;;;14.10;97.00;;;;;;5033303;28;20052;-70
2021/05/01 11:32:54;;;;;;;21.38;12.25;;;14.10;97.60;;;;;;5033734;28;20034;-69
2021/05/01 11:35:31;;;;;;;17.08;11.40;;;14.50;97.40;;;;;;5033486;28;20040;-70
2021/05/01 11:38:00;;;;;;;18.77;11.18;;;14.80;96.40;;;;;;5048675;28;20033;-72
2021/05/01 11:40:35;;;;;;;18.00;10.95;;;15.10;96.00;;;;;;5033896;28;20034;-71
2021/05/01 11:43:02;;;;;;;18.55;11.73;;;15.20;95.00;;;;;;5047731;28;20037;-71
2021/05/01 11:46:10;;;;;;;16.00;10.02;;;15.10;94.40;;;;;;5048544;28;20478;-55
2021/05/01 11:49:08;;;;;;;14.85;9.32;;;14.40;95.40;;;;;;5015031;28;20470;-71
2021/05/01 11:52:04;;;;;;;22.52;13.63;;;15.00;95.40;;;;;;5015035;28;20041;-70
2021/05/01 11:54:56;;;;;;;16.90;10.13;;;15.20;93.30;;;;;;5032844;28;20111;-70
2021/05/01 11:57:54;;;;;;;11.07;7.13;;;15.40;92.50;;;;;;5046273;28;20037;-70
2021/05/01 12:00:40;;;;;;;10.80;7.40;;;15.70;91.50;;;;;;5046794;28;20033;-70
2021/05/01 12:03:26;;;;;;;17.83;8.25;;;15.80;91.50;;;;;;5032926;28;20038;-66
2021/05/01 12:06:00;;;;;;;8.70;6.20;;;15.60;93.10;;;;;;5032791;28;20048;-67
2021/05/01 12:08:30;;;;;;;10.35;6.57;;;16.00;91.60;;;;;;5014913;28;20450;-66
2021/05/01 12:10:57;;;;;;;11.43;6.35;;;16.10;89.10;;;;;;5032661;28;20029;-65
2021/05/01 12:13:38;;;;;;;11.68;7.13;;;16.00;89.80;;;;;;5032136;28;20069;-65
2021/05/01 12:16:18;;;;;;;14.93;7.83;;;16.20;90.70;;;;;;5032390;28;20055;-68
2021/05/01 12:18:53;;;;;;;15.25;8.90;;;16.20;90.60;;;;;;5032821;28;20061;-67
2021/05/01 12:21:29;;;;;;;10.40;6.68;;;15.70;90.30;;;;;;5030098;28;20037;-66
2021/05/01 12:23:58;;;;;;;11.02;7.05;;;16.10;93.80;;;;;;5047539;28;20041;-65
2021/05/01 12:26:37;;;;;;;18.10;8.02;;;16.10;90.70;;;;;;5047599;28;20025;-66
2021/05/01 12:29:18;;;;;;;13.95;7.05;;;16.60;90.00;;;;;;5032558;28;20057;-68
2021/05/01 12:31:46;;;;;;;;;;;16.80;87.40;;;;;;5014763;28;20041;-67
2021/05/01 12:34:12;;;;;;;11.50;7.75;;;16.80;86.40;;;;;;5032494;28;19913;-66
2021/05/01 12:36:45;;;;;;;14.68;7.25;;;16.60;84.10;;;;;;5031928;28;20041;-65
2021/05/01 12:39:11;;;;;;;12.00;7.60;;;16.60;85.60;;;;;;5032251;28;20038;-66
2021/05/01 12:41:41;;;;;;;10.50;6.78;;;16.20;84.60;;;;;;5032319;28;20112;-68
2021/05/01 12:44:07;;;;;;;15.80;8.55;;;16.20;86.60;;;;;;5014289;28;20108;-69